sensor_id;sensor_type;location;lat;lon;timestamp;P1;durP1;ratioP1;P2;durP2;ratioP2
55455;SDS011;63021;52.836;6.376;2023-05-07T00:00:03;15.13;;;11.82;;
55455;SDS011;63021;52.836;6.376;2023-05-07T00:02:33;13.43;;;10.98;;
55455;SDS011;63021;52.836;6.376;2023-05-07T00:04:59;16.60;;;11.25;;
55455;SDS011;63021;52.836;6.376;2023-05-07T00:07:24;15.38;;;11.02;;
55455;SDS011;63021;52.836;6.376;2023-05-07T00:09:50;15.18;;;11.10;;
55455;SDS011;63021;52.836;6.376;2023-05-07T00:12:15;17.17;;;11.82;;
55455;SDS011;63021;52.836;6.376;2023-05-07T00:14:41;14.82;;;10.80;;
55455;SDS011;63021;52.836;6.376;2023-05-07T00:17:06;14.43;;;10.93;;
55455;SDS011;63021;52.836;6.376;2023-05-07T00:19:32;15.38;;;11.57;;
55455;SDS011;63021;52.836;6.376;2023-05-07T00:21:57;13.73;;;11.45;;
55455;SDS011;63021;52.836;6.376;2023-05-07T00:24:23;13.35;;;11.88;;
55455;SDS011;63021;52.836;6.376;2023-05-07T00:26:49;12.60;;;10.40;;
55455;SDS011;63021;52.836;6.376;2023-05-07T00:29:15;12.20;;;10.35;;
55455;SDS011;63021;52.836;6.376;2023-05-07T00:31:40;15.77;;;11.23;;
55455;SDS011;63021;52.836;6.376;2023-05-07T00:34:06;12.30;;;10.90;;
55455;SDS011;63021;52.836;6.376;2023-05-07T00:36:31;12.55;;;10.90;;
55455;SDS011;63021;52.836;6.376;2023-05-07T00:38:57;12.65;;;11.18;;
55455;SDS011;63021;52.836;6.376;2023-05-07T00:41:25;16.98;;;10.75;;
55455;SDS011;63021;52.836;6.376;2023-05-07T00:43:50;12.35;;;9.90;;
55455;SDS011;63021;52.836;6.376;2023-05-07T00:46:16;11.57;;;9.40;;
55455;SDS011;63021;52.836;6.376;2023-05-07T00:48:42;11.75;;;10.07;;
55455;SDS011;63021;52.836;6.376;2023-05-07T00:51:08;12.35;;;9.02;;
55455;SDS011;63021;52.836;6.376;2023-05-07T00:53:36;10.80;;;9.65;;
55455;SDS011;63021;52.836;6.376;2023-05-07T00:56:01;12.25;;;9.93;;
55455;SDS011;63021;52.836;6.376;2023-05-07T00:58:27;14.93;;;10.57;;
55455;SDS011;63021;52.836;6.376;2023-05-07T01:00:52;11.05;;;9.07;;
55455;SDS011;63021;52.836;6.376;2023-05-07T01:03:18;12.25;;;9.75;;
55455;SDS011;63021;52.836;6.376;2023-05-07T01:05:43;12.23;;;10.13;;
55455;SDS011;63021;52.836;6.376;2023-05-07T01:08:11;12.45;;;9.80;;
55455;SDS011;63021;52.836;6.376;2023-05-07T01:10:37;10.98;;;9.63;;
55455;SDS011;63021;52.836;6.376;2023-05-07T01:13:03;11.18;;;10.05;;
55455;SDS011;63021;52.836;6.376;2023-05-07T01:15:29;16.02;;;10.45;;
55455;SDS011;63021;52.836;6.376;2023-05-07T01:17:54;13.82;;;10.25;;
55455;SDS011;63021;52.836;6.376;2023-05-07T01:20:20;11.88;;;10.38;;
55455;SDS011;63021;52.836;6.376;2023-05-07T01:22:47;13.85;;;10.20;;
55455;SDS011;63021;52.836;6.376;2023-05-07T01:25:14;13.30;;;10.82;;
55455;SDS011;63021;52.836;6.376;2023-05-07T01:27:41;15.60;;;11.80;;
55455;SDS011;63021;52.836;6.376;2023-05-07T01:30:07;14.75;;;11.23;;
55455;SDS011;63021;52.836;6.376;2023-05-07T01:32:43;15.73;;;12.10;;
55455;SDS011;63021;52.836;6.376;2023-05-07T01:35:16;14.20;;;11.32;;
55455;SDS011;63021;52.836;6.376;2023-05-07T01:37:45;17.00;;;11.20;;
55455;SDS011;63021;52.836;6.376;2023-05-07T01:40:12;11.75;;;10.50;;
55455;SDS011;63021;52.836;6.376;2023-05-07T01:42:38;14.65;;;11.25;;
55455;SDS011;63021;52.836;6.376;2023-05-07T01:45:05;17.90;;;12.77;;
55455;SDS011;63021;52.836;6.376;2023-05-07T01:47:31;17.17;;;12.98;;
55455;SDS011;63021;52.836;6.376;2023-05-07T01:49:57;19.00;;;14.35;;
55455;SDS011;63021;52.836;6.376;2023-05-07T01:52:23;18.10;;;13.60;;
55455;SDS011;63021;52.836;6.376;2023-05-07T01:54:50;16.63;;;13.38;;
55455;SDS011;63021;52.836;6.376;2023-05-07T01:57:15;18.33;;;14.35;;
55455;SDS011;63021;52.836;6.376;2023-05-07T01:59:40;18.58;;;15.40;;
55455;SDS011;63021;52.836;6.376;2023-05-07T02:02:06;21.50;;;14.90;;
55455;SDS011;63021;52.836;6.376;2023-05-07T02:04:32;20.65;;;16.20;;
55455;SDS011;63021;52.836;6.376;2023-05-07T02:06:57;23.08;;;16.02;;
55455;SDS011;63021;52.836;6.376;2023-05-07T02:09:22;21.33;;;16.88;;
55455;SDS011;63021;52.836;6.376;2023-05-07T02:11:48;20.77;;;15.88;;
55455;SDS011;63021;52.836;6.376;2023-05-07T02:14:13;19.05;;;16.17;;
55455;SDS011;63021;52.836;6.376;2023-05-07T02:16:40;24.13;;;16.25;;
55455;SDS011;63021;52.836;6.376;2023-05-07T02:19:05;20.10;;;16.20;;
55455;SDS011;63021;52.836;6.376;2023-05-07T02:21:31;20.25;;;16.02;;
55455;SDS011;63021;52.836;6.376;2023-05-07T02:23:56;21.77;;;17.80;;
55455;SDS011;63021;52.836;6.376;2023-05-07T02:26:22;19.83;;;16.55;;
55455;SDS011;63021;52.836;6.376;2023-05-07T02:28:47;20.73;;;18.08;;
55455;SDS011;63021;52.836;6.376;2023-05-07T02:31:12;20.25;;;17.67;;
55455;SDS011;63021;52.836;6.376;2023-05-07T02:33:38;23.98;;;17.48;;
55455;SDS011;63021;52.836;6.376;2023-05-07T02:36:10;20.95;;;17.45;;
55455;SDS011;63021;52.836;6.376;2023-05-07T02:38:37;24.73;;;18.27;;
55455;SDS011;63021;52.836;6.376;2023-05-07T02:41:02;20.55;;;17.50;;
55455;SDS011;63021;52.836;6.376;2023-05-07T02:43:27;23.58;;;17.63;;
55455;SDS011;63021;52.836;6.376;2023-05-07T02:46:07;25.63;;;18.50;;
55455;SDS011;63021;52.836;6.376;2023-05-07T02:48:34;20.10;;;16.42;;
55455;SDS011;63021;52.836;6.376;2023-05-07T02:50:59;24.92;;;19.40;;
55455;SDS011;63021;52.836;6.376;2023-05-07T02:53:25;22.65;;;17.67;;
55455;SDS011;63021;52.836;6.376;2023-05-07T02:56:00;23.40;;;18.58;;
55455;SDS011;63021;52.836;6.376;2023-05-07T02:58:26;25.92;;;18.95;;
55455;SDS011;63021;52.836;6.376;2023-05-07T03:00:52;28.33;;;19.05;;
55455;SDS011;63021;52.836;6.376;2023-05-07T03:03:17;24.08;;;18.77;;
55455;SDS011;63021;52.836;6.376;2023-05-07T03:05:43;28.65;;;21.58;;
55455;SDS011;63021;52.836;6.376;2023-05-07T03:08:09;26.20;;;20.25;;
55455;SDS011;63021;52.836;6.376;2023-05-07T03:10:35;26.63;;;20.00;;
55455;SDS011;63021;52.836;6.376;2023-05-07T03:13:01;23.17;;;17.90;;
55455;SDS011;63021;52.836;6.376;2023-05-07T03:15:27;27.52;;;20.60;;
55455;SDS011;63021;52.836;6.376;2023-05-07T03:17:52;29.15;;;19.75;;
55455;SDS011;63021;52.836;6.376;2023-05-07T03:20:18;32.55;;;21.10;;
55455;SDS011;63021;52.836;6.376;2023-05-07T03:22:43;29.27;;;20.80;;
55455;SDS011;63021;52.836;6.376;2023-05-07T03:25:09;27.52;;;20.90;;
55455;SDS011;63021;52.836;6.376;2023-05-07T03:27:35;26.85;;;21.08;;
55455;SDS011;63021;52.836;6.376;2023-05-07T03:30:00;26.90;;;21.52;;
55455;SDS011;63021;52.836;6.376;2023-05-07T03:32:26;29.95;;;22.88;;
55455;SDS011;63021;52.836;6.376;2023-05-07T03:34:51;28.85;;;21.60;;
55455;SDS011;63021;52.836;6.376;2023-05-07T03:37:17;30.15;;;22.58;;
55455;SDS011;63021;52.836;6.376;2023-05-07T03:39:43;31.33;;;22.55;;
55455;SDS011;63021;52.836;6.376;2023-05-07T03:42:08;29.67;;;22.42;;
55455;SDS011;63021;52.836;6.376;2023-05-07T03:44:34;32.00;;;22.02;;
55455;SDS011;63021;52.836;6.376;2023-05-07T03:47:01;27.15;;;21.88;;
55455;SDS011;63021;52.836;6.376;2023-05-07T03:49:27;36.70;;;24.13;;
55455;SDS011;63021;52.836;6.376;2023-05-07T03:51:52;29.70;;;23.38;;
55455;SDS011;63021;52.836;6.376;2023-05-07T03:54:18;34.70;;;24.08;;
55455;SDS011;63021;52.836;6.376;2023-05-07T03:56:43;35.05;;;23.88;;
55455;SDS011;63021;52.836;6.376;2023-05-07T03:59:08;34.22;;;23.20;;
55455;SDS011;63021;52.836;6.376;2023-05-07T04:01:34;37.08;;;23.98;;
55455;SDS011;63021;52.836;6.376;2023-05-07T04:03:59;32.08;;;24.35;;
55455;SDS011;63021;52.836;6.376;2023-05-07T04:06:25;34.65;;;25.13;;
55455;SDS011;63021;52.836;6.376;2023-05-07T04:08:50;31.85;;;23.80;;
55455;SDS011;63021;52.836;6.376;2023-05-07T04:11:15;39.80;;;26.05;;
55455;SDS011;63021;52.836;6.376;2023-05-07T04:13:41;39.20;;;25.65;;
55455;SDS011;63021;52.836;6.376;2023-05-07T04:16:06;37.17;;;25.80;;
55455;SDS011;63021;52.836;6.376;2023-05-07T04:18:32;38.33;;;28.08;;
55455;SDS011;63021;52.836;6.376;2023-05-07T04:20:58;36.35;;;25.75;;
55455;SDS011;63021;52.836;6.376;2023-05-07T04:23:23;39.00;;;27.20;;
55455;SDS011;63021;52.836;6.376;2023-05-07T04:25:48;36.17;;;25.63;;
55455;SDS011;63021;52.836;6.376;2023-05-07T04:28:15;38.05;;;26.85;;
55455;SDS011;63021;52.836;6.376;2023-05-07T04:30:40;38.15;;;26.63;;
55455;SDS011;63021;52.836;6.376;2023-05-07T04:33:06;38.97;;;27.45;;
55455;SDS011;63021;52.836;6.376;2023-05-07T04:35:32;38.55;;;26.92;;
55455;SDS011;63021;52.836;6.376;2023-05-07T04:37:58;39.53;;;27.52;;
55455;SDS011;63021;52.836;6.376;2023-05-07T04:40:23;38.00;;;27.95;;
55455;SDS011;63021;52.836;6.376;2023-05-07T04:42:48;37.67;;;26.15;;
55455;SDS011;63021;52.836;6.376;2023-05-07T04:45:14;42.90;;;27.98;;
55455;SDS011;63021;52.836;6.376;2023-05-07T04:47:40;36.20;;;26.33;;
55455;SDS011;63021;52.836;6.376;2023-05-07T04:50:06;41.78;;;28.05;;
55455;SDS011;63021;52.836;6.376;2023-05-07T04:52:33;42.22;;;29.02;;
55455;SDS011;63021;52.836;6.376;2023-05-07T04:54:59;43.08;;;29.02;;
55455;SDS011;63021;52.836;6.376;2023-05-07T04:57:25;38.15;;;26.05;;
55455;SDS011;63021;52.836;6.376;2023-05-07T04:59:51;37.15;;;26.08;;
55455;SDS011;63021;52.836;6.376;2023-05-07T05:02:16;34.13;;;25.92;;
55455;SDS011;63021;52.836;6.376;2023-05-07T05:04:42;38.90;;;26.23;;
55455;SDS011;63021;52.836;6.376;2023-05-07T05:07:07;36.90;;;26.02;;
55455;SDS011;63021;52.836;6.376;2023-05-07T05:09:33;33.95;;;25.65;;
55455;SDS011;63021;52.836;6.376;2023-05-07T05:11:58;40.05;;;27.48;;
55455;SDS011;63021;52.836;6.376;2023-05-07T05:14:24;38.08;;;27.27;;
55455;SDS011;63021;52.836;6.376;2023-05-07T05:16:49;35.67;;;24.83;;
55455;SDS011;63021;52.836;6.376;2023-05-07T05:19:15;37.22;;;25.63;;
55455;SDS011;63021;52.836;6.376;2023-05-07T05:21:40;38.53;;;26.42;;
55455;SDS011;63021;52.836;6.376;2023-05-07T05:24:06;36.35;;;25.80;;
55455;SDS011;63021;52.836;6.376;2023-05-07T05:26:31;35.70;;;26.73;;
55455;SDS011;63021;52.836;6.376;2023-05-07T05:28:57;34.92;;;26.27;;
55455;SDS011;63021;52.836;6.376;2023-05-07T05:31:22;35.60;;;26.30;;
55455;SDS011;63021;52.836;6.376;2023-05-07T05:33:47;33.42;;;24.63;;
55455;SDS011;63021;52.836;6.376;2023-05-07T05:36:13;33.72;;;25.55;;
55455;SDS011;63021;52.836;6.376;2023-05-07T05:38:39;35.03;;;24.98;;
55455;SDS011;63021;52.836;6.376;2023-05-07T05:41:05;30.80;;;24.67;;
55455;SDS011;63021;52.836;6.376;2023-05-07T05:43:30;35.30;;;25.50;;
55455;SDS011;63021;52.836;6.376;2023-05-07T05:45:56;33.28;;;24.38;;
55455;SDS011;63021;52.836;6.376;2023-05-07T05:48:22;33.83;;;24.30;;
55455;SDS011;63021;52.836;6.376;2023-05-07T05:50:48;32.83;;;24.88;;
55455;SDS011;63021;52.836;6.376;2023-05-07T05:53:14;30.90;;;23.63;;
55455;SDS011;63021;52.836;6.376;2023-05-07T05:55:41;32.08;;;24.98;;
55455;SDS011;63021;52.836;6.376;2023-05-07T05:58:09;30.40;;;23.77;;
55455;SDS011;63021;52.836;6.376;2023-05-07T06:00:34;30.45;;;23.02;;
55455;SDS011;63021;52.836;6.376;2023-05-07T06:03:00;31.05;;;23.33;;
55455;SDS011;63021;52.836;6.376;2023-05-07T06:05:25;34.67;;;24.48;;
55455;SDS011;63021;52.836;6.376;2023-05-07T06:07:51;31.30;;;23.77;;
55455;SDS011;63021;52.836;6.376;2023-05-07T06:10:16;33.70;;;22.58;;
55455;SDS011;63021;52.836;6.376;2023-05-07T06:12:41;28.30;;;23.70;;
55455;SDS011;63021;52.836;6.376;2023-05-07T06:15:07;32.13;;;23.88;;
55455;SDS011;63021;52.836;6.376;2023-05-07T06:17:33;30.92;;;22.70;;
55455;SDS011;63021;52.836;6.376;2023-05-07T06:19:58;31.67;;;23.83;;
55455;SDS011;63021;52.836;6.376;2023-05-07T06:22:24;35.60;;;24.58;;
55455;SDS011;63021;52.836;6.376;2023-05-07T06:24:50;30.98;;;23.70;;
55455;SDS011;63021;52.836;6.376;2023-05-07T06:27:15;31.20;;;23.08;;
55455;SDS011;63021;52.836;6.376;2023-05-07T06:29:40;31.52;;;22.27;;
55455;SDS011;63021;52.836;6.376;2023-05-07T06:32:09;29.95;;;23.50;;
55455;SDS011;63021;52.836;6.376;2023-05-07T06:34:36;31.10;;;22.85;;
55455;SDS011;63021;52.836;6.376;2023-05-07T06:37:02;29.63;;;23.02;;
55455;SDS011;63021;52.836;6.376;2023-05-07T06:39:27;27.15;;;21.98;;
55455;SDS011;63021;52.836;6.376;2023-05-07T06:41:53;27.38;;;22.60;;
55455;SDS011;63021;52.836;6.376;2023-05-07T06:44:18;29.63;;;22.88;;
55455;SDS011;63021;52.836;6.376;2023-05-07T06:46:44;31.35;;;23.42;;
55455;SDS011;63021;52.836;6.376;2023-05-07T06:49:10;27.63;;;22.58;;
55455;SDS011;63021;52.836;6.376;2023-05-07T06:51:35;32.25;;;24.20;;
55455;SDS011;63021;52.836;6.376;2023-05-07T06:54:01;33.55;;;26.08;;
55455;SDS011;63021;52.836;6.376;2023-05-07T06:56:26;30.10;;;23.05;;
55455;SDS011;63021;52.836;6.376;2023-05-07T06:58:52;31.20;;;24.13;;
55455;SDS011;63021;52.836;6.376;2023-05-07T07:01:17;33.90;;;23.85;;
55455;SDS011;63021;52.836;6.376;2023-05-07T07:03:42;31.45;;;24.50;;
55455;SDS011;63021;52.836;6.376;2023-05-07T07:06:08;31.02;;;24.25;;
55455;SDS011;63021;52.836;6.376;2023-05-07T07:08:33;34.90;;;25.42;;
55455;SDS011;63021;52.836;6.376;2023-05-07T07:10:59;30.20;;;23.65;;
55455;SDS011;63021;52.836;6.376;2023-05-07T07:13:25;36.35;;;24.77;;
55455;SDS011;63021;52.836;6.376;2023-05-07T07:15:51;30.73;;;24.48;;
55455;SDS011;63021;52.836;6.376;2023-05-07T07:18:18;33.35;;;24.33;;
55455;SDS011;63021;52.836;6.376;2023-05-07T07:20:43;30.75;;;24.73;;
55455;SDS011;63021;52.836;6.376;2023-05-07T07:23:09;31.33;;;24.73;;
55455;SDS011;63021;52.836;6.376;2023-05-07T07:25:35;30.20;;;23.55;;
55455;SDS011;63021;52.836;6.376;2023-05-07T07:28:00;31.45;;;24.15;;
55455;SDS011;63021;52.836;6.376;2023-05-07T07:30:26;36.28;;;25.83;;
55455;SDS011;63021;52.836;6.376;2023-05-07T07:32:51;34.33;;;26.13;;
55455;SDS011;63021;52.836;6.376;2023-05-07T07:35:17;31.27;;;24.85;;
55455;SDS011;63021;52.836;6.376;2023-05-07T07:37:43;30.38;;;23.25;;
55455;SDS011;63021;52.836;6.376;2023-05-07T07:40:08;30.17;;;24.63;;
55455;SDS011;63021;52.836;6.376;2023-05-07T07:42:34;34.70;;;24.20;;
55455;SDS011;63021;52.836;6.376;2023-05-07T07:45:00;33.33;;;25.27;;
55455;SDS011;63021;52.836;6.376;2023-05-07T07:47:25;32.13;;;23.90;;
55455;SDS011;63021;52.836;6.376;2023-05-07T07:49:50;33.80;;;24.02;;
55455;SDS011;63021;52.836;6.376;2023-05-07T07:52:16;33.83;;;25.17;;
55455;SDS011;63021;52.836;6.376;2023-05-07T07:54:41;36.50;;;26.98;;
55455;SDS011;63021;52.836;6.376;2023-05-07T07:57:07;32.65;;;25.17;;
55455;SDS011;63021;52.836;6.376;2023-05-07T07:59:33;31.23;;;24.50;;
55455;SDS011;63021;52.836;6.376;2023-05-07T08:01:58;31.13;;;24.95;;
55455;SDS011;63021;52.836;6.376;2023-05-07T08:04:24;32.88;;;24.38;;
55455;SDS011;63021;52.836;6.376;2023-05-07T08:06:49;30.83;;;23.83;;
55455;SDS011;63021;52.836;6.376;2023-05-07T08:09:15;30.13;;;23.90;;
55455;SDS011;63021;52.836;6.376;2023-05-07T08:11:40;32.08;;;23.63;;
55455;SDS011;63021;52.836;6.376;2023-05-07T08:14:06;33.58;;;25.42;;
55455;SDS011;63021;52.836;6.376;2023-05-07T08:16:31;33.30;;;24.48;;
55455;SDS011;63021;52.836;6.376;2023-05-07T08:18:56;33.25;;;25.20;;
55455;SDS011;63021;52.836;6.376;2023-05-07T08:21:22;31.65;;;24.77;;
55455;SDS011;63021;52.836;6.376;2023-05-07T08:23:48;30.20;;;24.35;;
55455;SDS011;63021;52.836;6.376;2023-05-07T08:26:13;32.70;;;25.10;;
55455;SDS011;63021;52.836;6.376;2023-05-07T08:28:39;31.00;;;24.83;;
55455;SDS011;63021;52.836;6.376;2023-05-07T08:31:04;37.25;;;26.13;;
55455;SDS011;63021;52.836;6.376;2023-05-07T08:33:30;31.60;;;25.25;;
55455;SDS011;63021;52.836;6.376;2023-05-07T08:35:56;32.70;;;24.25;;
55455;SDS011;63021;52.836;6.376;2023-05-07T08:38:21;30.33;;;24.45;;
55455;SDS011;63021;52.836;6.376;2023-05-07T08:40:46;32.72;;;24.92;;
55455;SDS011;63021;52.836;6.376;2023-05-07T08:43:12;35.03;;;25.30;;
55455;SDS011;63021;52.836;6.376;2023-05-07T08:45:39;30.30;;;24.55;;
55455;SDS011;63021;52.836;6.376;2023-05-07T08:48:07;32.28;;;23.63;;
55455;SDS011;63021;52.836;6.376;2023-05-07T08:50:37;31.73;;;25.02;;
55455;SDS011;63021;52.836;6.376;2023-05-07T08:53:03;36.33;;;26.38;;
55455;SDS011;63021;52.836;6.376;2023-05-07T08:55:29;34.53;;;26.65;;
55455;SDS011;63021;52.836;6.376;2023-05-07T08:57:55;38.60;;;26.63;;
55455;SDS011;63021;52.836;6.376;2023-05-07T09:00:20;33.95;;;25.30;;
55455;SDS011;63021;52.836;6.376;2023-05-07T09:02:46;36.28;;;25.55;;
55455;SDS011;63021;52.836;6.376;2023-05-07T09:05:11;32.35;;;25.00;;
55455;SDS011;63021;52.836;6.376;2023-05-07T09:07:37;31.67;;;25.05;;
55455;SDS011;63021;52.836;6.376;2023-05-07T09:10:02;34.17;;;25.45;;
55455;SDS011;63021;52.836;6.376;2023-05-07T09:12:29;32.20;;;24.63;;
55455;SDS011;63021;52.836;6.376;2023-05-07T09:14:54;32.60;;;24.83;;
55455;SDS011;63021;52.836;6.376;2023-05-07T09:17:20;30.63;;;23.20;;
55455;SDS011;63021;52.836;6.376;2023-05-07T09:19:46;34.03;;;24.38;;
55455;SDS011;63021;52.836;6.376;2023-05-07T09:22:12;34.15;;;24.90;;
55455;SDS011;63021;52.836;6.376;2023-05-07T09:24:38;32.97;;;25.35;;
55455;SDS011;63021;52.836;6.376;2023-05-07T09:27:06;34.25;;;24.70;;
55455;SDS011;63021;52.836;6.376;2023-05-07T09:29:33;32.85;;;24.00;;
55455;SDS011;63021;52.836;6.376;2023-05-07T09:32:02;32.03;;;23.13;;
55455;SDS011;63021;52.836;6.376;2023-05-07T09:34:29;31.15;;;23.42;;
55455;SDS011;63021;52.836;6.376;2023-05-07T09:36:58;32.40;;;24.70;;
55455;SDS011;63021;52.836;6.376;2023-05-07T09:39:25;34.80;;;24.30;;
55455;SDS011;63021;52.836;6.376;2023-05-07T09:41:50;30.55;;;23.60;;
55455;SDS011;63021;52.836;6.376;2023-05-07T09:44:19;30.98;;;24.70;;
55455;SDS011;63021;52.836;6.376;2023-05-07T09:46:45;32.33;;;23.35;;
55455;SDS011;63021;52.836;6.376;2023-05-07T09:49:19;34.72;;;24.48;;
55455;SDS011;63021;52.836;6.376;2023-05-07T09:51:48;28.77;;;24.35;;
55455;SDS011;63021;52.836;6.376;2023-05-07T09:54:15;35.92;;;25.13;;
55455;SDS011;63021;52.836;6.376;2023-05-07T09:56:42;30.27;;;24.25;;
55455;SDS011;63021;52.836;6.376;2023-05-07T09:59:13;30.08;;;23.20;;
55455;SDS011;63021;52.836;6.376;2023-05-07T10:01:40;28.85;;;24.13;;
55455;SDS011;63021;52.836;6.376;2023-05-07T10:04:07;30.35;;;23.05;;
55455;SDS011;63021;52.836;6.376;2023-05-07T10:06:34;29.92;;;24.40;;
55455;SDS011;63021;52.836;6.376;2023-05-07T10:09:00;33.42;;;25.13;;
55455;SDS011;63021;52.836;6.376;2023-05-07T10:11:27;35.05;;;24.30;;
55455;SDS011;63021;52.836;6.376;2023-05-07T10:13:53;28.05;;;23.33;;
55455;SDS011;63021;52.836;6.376;2023-05-07T10:16:19;31.30;;;23.40;;
55455;SDS011;63021;52.836;6.376;2023-05-07T10:18:46;27.55;;;21.25;;
55455;SDS011;63021;52.836;6.376;2023-05-07T10:21:13;26.58;;;21.92;;
55455;SDS011;63021;52.836;6.376;2023-05-07T10:23:48;25.80;;;21.63;;
55455;SDS011;63021;52.836;6.376;2023-05-07T10:26:15;26.95;;;22.60;;
55455;SDS011;63021;52.836;6.376;2023-05-07T10:28:45;25.20;;;21.63;;
55455;SDS011;63021;52.836;6.376;2023-05-07T10:31:27;29.08;;;21.60;;
55455;SDS011;63021;52.836;6.376;2023-05-07T10:33:59;27.85;;;21.88;;
55455;SDS011;63021;52.836;6.376;2023-05-07T10:36:27;25.98;;;21.60;;
55455;SDS011;63021;52.836;6.376;2023-05-07T10:38:53;25.38;;;21.45;;
55455;SDS011;63021;52.836;6.376;2023-05-07T10:41:20;27.92;;;20.85;;
55455;SDS011;63021;52.836;6.376;2023-05-07T10:43:46;26.77;;;22.83;;
55455;SDS011;63021;52.836;6.376;2023-05-07T10:46:14;29.00;;;22.17;;
55455;SDS011;63021;52.836;6.376;2023-05-07T10:51:31;32.13;;;22.30;;
55455;SDS011;63021;52.836;6.376;2023-05-07T10:56:36;28.38;;;22.13;;
55455;SDS011;63021;52.836;6.376;2023-05-07T11:01:55;24.48;;;20.48;;
55455;SDS011;63021;52.836;6.376;2023-05-07T11:04:25;31.33;;;21.42;;
55455;SDS011;63021;52.836;6.376;2023-05-07T11:15:01;22.20;;;19.77;;
55455;SDS011;63021;52.836;6.376;2023-05-07T11:17:52;24.15;;;19.67;;
55455;SDS011;63021;52.836;6.376;2023-05-07T11:20:17;22.95;;;19.17;;
55455;SDS011;63021;52.836;6.376;2023-05-07T11:22:43;28.02;;;21.50;;
55455;SDS011;63021;52.836;6.376;2023-05-07T11:25:09;21.88;;;19.38;;
55455;SDS011;63021;52.836;6.376;2023-05-07T11:27:34;23.38;;;20.23;;
55455;SDS011;63021;52.836;6.376;2023-05-07T11:30:00;22.90;;;20.17;;
55455;SDS011;63021;52.836;6.376;2023-05-07T11:32:29;22.10;;;19.30;;
55455;SDS011;63021;52.836;6.376;2023-05-07T11:34:57;25.80;;;19.77;;
55455;SDS011;63021;52.836;6.376;2023-05-07T11:37:24;20.17;;;17.73;;
55455;SDS011;63021;52.836;6.376;2023-05-07T11:39:50;23.73;;;20.23;;
55455;SDS011;63021;52.836;6.376;2023-05-07T11:44:54;20.65;;;18.30;;
55455;SDS011;63021;52.836;6.376;2023-05-07T11:47:20;20.40;;;16.13;;
55455;SDS011;63021;52.836;6.376;2023-05-07T11:49:50;16.45;;;14.65;;
55455;SDS011;63021;52.836;6.376;2023-05-07T11:52:19;18.67;;;15.50;;
55455;SDS011;63021;52.836;6.376;2023-05-07T11:55:04;20.08;;;17.95;;
55455;SDS011;63021;52.836;6.376;2023-05-07T11:57:29;19.45;;;17.45;;
55455;SDS011;63021;52.836;6.376;2023-05-07T11:59:59;18.55;;;16.42;;
55455;SDS011;63021;52.836;6.376;2023-05-07T12:02:27;19.15;;;16.63;;
55455;SDS011;63021;52.836;6.376;2023-05-07T12:04:53;21.00;;;18.13;;
55455;SDS011;63021;52.836;6.376;2023-05-07T12:07:19;19.85;;;17.45;;
55455;SDS011;63021;52.836;6.376;2023-05-07T12:09:45;18.58;;;16.58;;
55455;SDS011;63021;52.836;6.376;2023-05-07T12:12:11;19.23;;;16.02;;
55455;SDS011;63021;52.836;6.376;2023-05-07T12:14:41;20.17;;;15.38;;
55455;SDS011;63021;52.836;6.376;2023-05-07T12:17:10;16.52;;;14.70;;
55455;SDS011;63021;52.836;6.376;2023-05-07T12:19:37;21.80;;;15.18;;
55455;SDS011;63021;52.836;6.376;2023-05-07T12:22:03;16.80;;;14.48;;
55455;SDS011;63021;52.836;6.376;2023-05-07T12:24:48;14.43;;;12.95;;
55455;SDS011;63021;52.836;6.376;2023-05-07T12:27:21;17.38;;;13.52;;
55455;SDS011;63021;52.836;6.376;2023-05-07T12:29:47;14.98;;;12.68;;
55455;SDS011;63021;52.836;6.376;2023-05-07T12:32:16;16.80;;;15.10;;
55455;SDS011;63021;52.836;6.376;2023-05-07T12:34:43;16.13;;;13.57;;
55455;SDS011;63021;52.836;6.376;2023-05-07T12:37:09;15.93;;;14.18;;
55455;SDS011;63021;52.836;6.376;2023-05-07T12:39:35;16.38;;;14.63;;
55455;SDS011;63021;52.836;6.376;2023-05-07T12:42:00;17.80;;;14.80;;
55455;SDS011;63021;52.836;6.376;2023-05-07T12:44:29;17.50;;;14.93;;
55455;SDS011;63021;52.836;6.376;2023-05-07T12:46:57;16.48;;;14.77;;
55455;SDS011;63021;52.836;6.376;2023-05-07T12:49:26;16.35;;;14.60;;
55455;SDS011;63021;52.836;6.376;2023-05-07T12:51:51;15.50;;;13.90;;
55455;SDS011;63021;52.836;6.376;2023-05-07T12:54:27;14.50;;;12.98;;
55455;SDS011;63021;52.836;6.376;2023-05-07T12:57:03;20.48;;;14.20;;
55455;SDS011;63021;52.836;6.376;2023-05-07T12:59:34;14.85;;;13.30;;
55455;SDS011;63021;52.836;6.376;2023-05-07T13:02:01;15.68;;;13.88;;
55455;SDS011;63021;52.836;6.376;2023-05-07T13:04:27;17.10;;;12.23;;
55455;SDS011;63021;52.836;6.376;2023-05-07T13:06:52;12.40;;;11.07;;
55455;SDS011;63021;52.836;6.376;2023-05-07T13:09:17;12.88;;;11.57;;
55455;SDS011;63021;52.836;6.376;2023-05-07T13:11:43;13.98;;;12.48;;
55455;SDS011;63021;52.836;6.376;2023-05-07T13:14:08;15.32;;;13.73;;
55455;SDS011;63021;52.836;6.376;2023-05-07T13:16:33;16.15;;;14.45;;
55455;SDS011;63021;52.836;6.376;2023-05-07T13:18:59;16.00;;;13.68;;
55455;SDS011;63021;52.836;6.376;2023-05-07T13:21:24;15.60;;;13.60;;
55455;SDS011;63021;52.836;6.376;2023-05-07T13:23:50;15.25;;;13.65;;
55455;SDS011;63021;52.836;6.376;2023-05-07T13:26:15;18.25;;;14.80;;
55455;SDS011;63021;52.836;6.376;2023-05-07T13:28:41;15.48;;;13.88;;
55455;SDS011;63021;52.836;6.376;2023-05-07T13:31:09;14.73;;;13.13;;
55455;SDS011;63021;52.836;6.376;2023-05-07T13:33:35;14.45;;;12.32;;
55455;SDS011;63021;52.836;6.376;2023-05-07T13:36:00;14.43;;;12.90;;
55455;SDS011;63021;52.836;6.376;2023-05-07T13:38:28;15.30;;;13.23;;
55455;SDS011;63021;52.836;6.376;2023-05-07T13:40:54;14.82;;;13.32;;
55455;SDS011;63021;52.836;6.376;2023-05-07T13:43:19;14.90;;;13.27;;
55455;SDS011;63021;52.836;6.376;2023-05-07T13:45:45;16.60;;;13.38;;
55455;SDS011;63021;52.836;6.376;2023-05-07T13:48:10;18.60;;;14.32;;
55455;SDS011;63021;52.836;6.376;2023-05-07T13:50:35;15.48;;;13.88;;
55455;SDS011;63021;52.836;6.376;2023-05-07T13:53:01;17.10;;;14.10;;
55455;SDS011;63021;52.836;6.376;2023-05-07T13:55:28;16.73;;;14.43;;
55455;SDS011;63021;52.836;6.376;2023-05-07T13:57:54;15.48;;;13.60;;
55455;SDS011;63021;52.836;6.376;2023-05-07T14:00:22;15.73;;;14.00;;
55455;SDS011;63021;52.836;6.376;2023-05-07T14:02:48;16.60;;;14.27;;
55455;SDS011;63021;52.836;6.376;2023-05-07T14:05:13;15.43;;;13.82;;
55455;SDS011;63021;52.836;6.376;2023-05-07T14:07:39;16.40;;;14.65;;
55455;SDS011;63021;52.836;6.376;2023-05-07T14:10:04;16.98;;;14.85;;
55455;SDS011;63021;52.836;6.376;2023-05-07T14:12:31;15.55;;;14.05;;
55455;SDS011;63021;52.836;6.376;2023-05-07T14:14:57;16.00;;;14.18;;
55455;SDS011;63021;52.836;6.376;2023-05-07T14:17:23;17.30;;;14.70;;
55455;SDS011;63021;52.836;6.376;2023-05-07T14:19:51;15.52;;;13.85;;
55455;SDS011;63021;52.836;6.376;2023-05-07T14:22:18;16.75;;;15.05;;
55455;SDS011;63021;52.836;6.376;2023-05-07T14:24:45;16.48;;;14.70;;
55455;SDS011;63021;52.836;6.376;2023-05-07T14:27:10;18.98;;;14.82;;
55455;SDS011;63021;52.836;6.376;2023-05-07T14:29:36;16.20;;;14.48;;
55455;SDS011;63021;52.836;6.376;2023-05-07T14:32:02;15.93;;;14.02;;
55455;SDS011;63021;52.836;6.376;2023-05-07T14:34:28;17.63;;;14.35;;